createdAt,value
2017-03-24T00:00:52.364Z,79.60
2017-03-24T00:01:50.557Z,79.60
2017-03-24T00:02:48.764Z,79.60
2017-03-24T00:03:47.735Z,80.20
2017-03-24T00:04:45.934Z,79.80
2017-03-24T00:05:44.156Z,79.80
2017-03-24T00:06:42.357Z,79.70
2017-03-24T00:07:40.605Z,79.70
2017-03-24T00:08:39.561Z,79.60
2017-03-24T00:09:37.802Z,79.60
2017-03-24T00:10:36.073Z,79.50
2017-03-24T00:11:35.044Z,79.50
2017-03-24T00:12:33.261Z,79.40
2017-03-24T00:13:32.205Z,79.40
2017-03-24T00:14:30.433Z,79.50
2017-03-24T00:15:29.433Z,79.60
2017-03-24T00:16:27.673Z,79.60
2017-03-24T00:17:25.901Z,79.70
2017-03-24T00:18:24.182Z,79.70
2017-03-24T00:19:22.452Z,79.60
2017-03-24T00:20:21.461Z,79.60
2017-03-24T00:21:19.706Z,79.90
2017-03-24T00:22:18.683Z,79.80
2017-03-24T00:23:16.925Z,80.00
2017-03-24T00:24:15.162Z,79.80
2017-03-24T00:25:13.409Z,79.80
2017-03-24T00:26:11.636Z,79.80
2017-03-24T00:27:09.857Z,79.60
2017-03-24T00:28:08.053Z,79.40
2017-03-24T00:29:06.297Z,79.30
2017-03-24T00:30:04.521Z,79.40
2017-03-24T00:31:02.737Z,79.30
2017-03-24T00:32:00.973Z,79.10
2017-03-24T00:32:59.194Z,79.00
2017-03-24T00:33:57.394Z,78.90
2017-03-24T00:34:55.628Z,78.80
2017-03-24T00:35:53.837Z,78.80
2017-03-24T00:36:52.087Z,78.70
2017-03-24T00:37:50.304Z,78.60
2017-03-24T00:38:48.555Z,78.50
2017-03-24T00:39:46.801Z,78.30
2017-03-24T00:40:45.017Z,78.20
2017-03-24T00:41:43.257Z,78.00
2017-03-24T00:42:41.446Z,77.90
2017-03-24T00:43:39.642Z,77.80
2017-03-24T00:44:37.905Z,77.70
2017-03-24T00:45:36.104Z,77.70
2017-03-24T00:46:34.328Z,77.50
2017-03-24T00:47:32.610Z,77.40
2017-03-24T00:48:30.818Z,77.90
2017-03-24T00:49:29.046Z,77.30
2017-03-24T00:50:27.283Z,77.20
2017-03-24T00:51:26.249Z,77.10
2017-03-24T00:52:24.469Z,77.00
2017-03-24T00:53:22.702Z,77.00
2017-03-24T00:54:20.994Z,76.90
2017-03-24T00:55:19.241Z,76.90
2017-03-24T00:56:18.241Z,76.80
2017-03-24T00:57:16.453Z,76.70
2017-03-24T00:58:14.702Z,76.70
2017-03-24T00:59:12.981Z,76.60
2017-03-24T01:00:11.321Z,76.50
2017-03-24T01:01:09.613Z,76.50
2017-03-24T01:02:07.896Z,76.20
2017-03-24T01:03:06.175Z,76.30
2017-03-24T01:04:05.174Z,76.30
2017-03-24T01:05:03.467Z,76.30
2017-03-24T01:06:01.669Z,76.20
2017-03-24T01:06:59.879Z,76.20
2017-03-24T01:07:58.136Z,76.20
2017-03-24T01:08:56.374Z,76.00
2017-03-24T01:09:54.602Z,76.00
2017-03-24T01:10:52.845Z,76.00
2017-03-24T01:11:51.073Z,76.00
2017-03-24T01:12:50.053Z,76.20
2017-03-24T01:13:49.059Z,76.10
2017-03-24T01:14:47.290Z,75.80
2017-03-24T01:15:45.526Z,75.70
2017-03-24T01:16:43.736Z,75.70
2017-03-24T01:17:42.022Z,75.60
2017-03-24T01:18:40.995Z,75.40
2017-03-24T01:19:39.255Z,75.60
2017-03-24T01:20:37.470Z,75.40
2017-03-24T01:21:35.705Z,75.30
2017-03-24T01:22:34.054Z,75.10
2017-03-24T01:23:32.298Z,75.10
2017-03-24T01:24:30.540Z,75.10
2017-03-24T01:25:28.869Z,75.10
2017-03-24T01:26:27.145Z,75.20
2017-03-24T01:27:25.403Z,75.20
2017-03-24T01:28:23.679Z,75.20
2017-03-24T01:29:21.934Z,75.30
2017-03-24T01:30:20.216Z,75.20
2017-03-24T01:31:18.518Z,75.10
2017-03-24T01:32:16.781Z,75.10
2017-03-24T01:33:15.074Z,75.10
2017-03-24T01:34:13.338Z,75.10
2017-03-24T01:35:12.381Z,75.10
2017-03-24T01:36:11.429Z,75.00
2017-03-24T01:37:09.677Z,74.80
2017-03-24T01:38:07.929Z,74.80
2017-03-24T01:39:06.217Z,74.80
2017-03-24T01:40:04.505Z,74.80
2017-03-24T01:41:02.793Z,74.80
2017-03-24T01:42:01.092Z,74.80
2017-03-24T01:42:59.402Z,74.80
2017-03-24T01:43:57.640Z,74.80
2017-03-24T01:44:55.881Z,74.70
2017-03-24T01:45:54.117Z,74.60
2017-03-24T01:46:52.384Z,74.60
2017-03-24T01:47:50.609Z,74.60
2017-03-24T01:48:49.624Z,74.50
2017-03-24T01:49:47.857Z,74.60
2017-03-24T01:50:46.093Z,74.50
2017-03-24T01:51:44.329Z,74.50
2017-03-24T01:52:42.574Z,74.40
2017-03-24T01:53:41.596Z,74.30
2017-03-24T01:54:39.870Z,74.30
2017-03-24T01:55:38.157Z,74.30
2017-03-24T01:56:36.395Z,74.30
2017-03-24T01:57:34.702Z,74.20
2017-03-24T01:58:32.933Z,74.20
2017-03-24T01:59:31.161Z,74.20
2017-03-24T02:00:29.429Z,74.30
2017-03-24T02:01:27.746Z,74.20
2017-03-24T02:02:26.021Z,74.00
2017-03-24T02:03:24.250Z,73.90
2017-03-24T02:04:22.539Z,73.80
2017-03-24T02:05:20.781Z,73.90
2017-03-24T02:06:19.110Z,73.90
2017-03-24T02:07:17.405Z,73.90
2017-03-24T02:08:15.712Z,73.80
2017-03-24T02:09:14.037Z,73.90
2017-03-24T02:10:12.386Z,73.90
2017-03-24T02:11:10.685Z,73.90
2017-03-24T02:12:08.937Z,73.90
2017-03-24T02:13:07.249Z,73.70
2017-03-24T02:14:05.509Z,73.60
2017-03-24T02:16:02.595Z,74.40
2017-03-24T02:17:01.705Z,73.70
2017-03-24T02:17:59.958Z,73.70
2017-03-24T02:18:58.937Z,73.80
2017-03-24T02:19:57.945Z,73.80
2017-03-24T02:20:56.221Z,73.70
2017-03-24T02:21:54.513Z,73.70
2017-03-24T02:22:52.797Z,73.70
2017-03-24T02:23:51.138Z,73.70
2017-03-24T02:24:49.373Z,73.60
2017-03-24T02:25:47.640Z,73.60
2017-03-24T02:26:45.885Z,73.50
2017-03-24T02:27:44.106Z,73.50
2017-03-24T02:28:42.411Z,73.50
2017-03-24T02:29:40.663Z,73.40
2017-03-24T02:30:38.936Z,73.50
2017-03-24T02:31:37.192Z,73.50
2017-03-24T02:32:35.480Z,73.60
2017-03-24T02:33:33.771Z,73.50
2017-03-24T02:34:32.013Z,73.40
2017-03-24T02:35:30.285Z,73.30
2017-03-24T02:36:28.564Z,73.30
2017-03-24T02:37:26.909Z,73.30
2017-03-24T02:38:25.901Z,73.30
2017-03-24T02:39:24.161Z,72.30
2017-03-24T02:40:22.388Z,72.20
2017-03-24T02:41:20.752Z,72.20
2017-03-24T02:42:19.049Z,72.20
2017-03-24T02:43:17.316Z,72.30
2017-03-24T02:44:16.313Z,72.30
2017-03-24T02:45:14.625Z,72.20
2017-03-24T02:46:12.960Z,72.20
2017-03-24T02:47:11.265Z,72.30
2017-03-24T02:48:09.559Z,72.20
2017-03-24T02:49:07.797Z,73.10
2017-03-24T02:50:06.796Z,73.10
2017-03-24T02:51:05.074Z,72.30
2017-03-24T02:52:04.149Z,73.70
2017-03-24T02:53:02.509Z,73.00
2017-03-24T02:54:00.792Z,71.90
2017-03-24T02:54:59.792Z,72.80
2017-03-24T02:55:58.077Z,71.80
2017-03-24T02:56:56.324Z,71.70
2017-03-24T02:57:55.302Z,72.70
2017-03-24T02:58:54.309Z,72.70
2017-03-24T02:59:52.546Z,71.60
2017-03-24T03:00:50.818Z,71.70
2017-03-24T03:01:49.886Z,71.60
2017-03-24T03:02:48.174Z,71.60
2017-03-24T03:03:47.184Z,71.60
2017-03-24T03:04:45.486Z,71.50
2017-03-24T03:05:43.796Z,71.40
2017-03-24T03:06:42.039Z,71.30
2017-03-24T03:07:40.286Z,71.20
2017-03-24T03:08:38.578Z,71.20
2017-03-24T03:09:36.898Z,71.10
2017-03-24T03:10:35.213Z,71.00
2017-03-24T03:11:34.193Z,70.90
2017-03-24T03:12:32.446Z,70.80
2017-03-24T03:13:30.713Z,70.80
2017-03-24T03:14:28.974Z,70.80
2017-03-24T03:15:27.238Z,70.90
2017-03-24T03:16:25.482Z,70.90
2017-03-24T03:17:23.784Z,70.80
2017-03-24T03:18:22.021Z,70.90
2017-03-24T03:19:20.212Z,70.70
2017-03-24T03:20:18.461Z,70.80
2017-03-24T03:21:16.645Z,70.80
2017-03-24T03:22:15.604Z,70.80
2017-03-24T03:23:13.873Z,70.70
2017-03-24T03:24:12.110Z,70.70
2017-03-24T03:25:10.313Z,70.80
2017-03-24T03:26:08.577Z,70.70
2017-03-24T03:27:06.842Z,70.60
2017-03-24T03:28:05.165Z,70.60
2017-03-24T03:29:03.398Z,70.80
2017-03-24T03:30:01.632Z,70.70
2017-03-24T03:30:59.869Z,70.60
2017-03-24T03:31:58.072Z,70.50
2017-03-24T03:32:56.333Z,70.40
2017-03-24T03:33:55.320Z,70.30
2017-03-24T03:34:53.545Z,70.10
2017-03-24T03:35:51.782Z,70.10
2017-03-24T03:36:49.998Z,70.10
2017-03-24T03:37:48.207Z,70.20
2017-03-24T03:38:47.173Z,71.10
2017-03-24T03:39:45.423Z,71.00
2017-03-24T03:40:43.654Z,71.00
2017-03-24T03:41:41.917Z,71.10
2017-03-24T03:42:40.126Z,70.90
2017-03-24T03:43:38.357Z,70.80
2017-03-24T03:44:36.656Z,70.90
2017-03-24T03:45:34.877Z,70.80
2017-03-24T03:46:33.094Z,70.90
2017-03-24T03:47:31.349Z,70.90
2017-03-24T03:48:29.540Z,70.90
2017-03-24T03:49:27.805Z,70.90
2017-03-24T03:50:26.020Z,70.90
2017-03-24T03:51:25.054Z,70.80
2017-03-24T03:52:23.357Z,70.70
2017-03-24T03:53:21.647Z,70.80
2017-03-24T03:54:19.901Z,70.90
2017-03-24T03:55:18.141Z,70.90
2017-03-24T03:56:17.129Z,71.00
2017-03-24T03:57:15.380Z,71.10
2017-03-24T03:58:14.396Z,71.00
2017-03-24T03:59:12.645Z,71.00
2017-03-24T04:00:10.919Z,71.00
2017-03-24T04:01:09.189Z,71.00
2017-03-24T04:02:07.452Z,71.00
2017-03-24T04:03:05.725Z,71.20
2017-03-24T04:04:03.974Z,71.20
2017-03-24T04:05:02.242Z,71.30
2017-03-24T04:06:00.472Z,71.30
2017-03-24T04:06:58.696Z,71.20
2017-03-24T04:07:56.901Z,71.20
2017-03-24T04:08:55.927Z,71.20
2017-03-24T04:09:54.150Z,72.00
2017-03-24T04:10:52.348Z,71.30
2017-03-24T04:11:50.557Z,72.00
2017-03-24T04:12:48.778Z,71.40
2017-03-24T04:13:46.994Z,71.30
2017-03-24T04:14:45.265Z,71.20
2017-03-24T04:15:43.477Z,71.10
2017-03-24T04:16:45.429Z,71.10
2017-03-24T04:17:43.643Z,71.90
2017-03-24T04:18:41.869Z,71.10
2017-03-24T04:19:40.081Z,71.30
2017-03-24T04:20:38.338Z,71.20
2017-03-24T04:21:36.572Z,71.20
2017-03-24T04:22:34.785Z,71.10
2017-03-24T04:23:33.002Z,71.30
2017-03-24T04:24:31.237Z,71.40
2017-03-24T04:25:30.228Z,71.30
2017-03-24T04:26:28.505Z,71.10
2017-03-24T04:27:26.753Z,71.30
2017-03-24T04:28:25.015Z,71.30
2017-03-24T04:29:24.057Z,71.30
2017-03-24T04:30:22.361Z,71.50
2017-03-24T04:31:20.617Z,71.40
2017-03-24T04:32:18.922Z,71.40
2017-03-24T04:33:17.126Z,71.40
2017-03-24T04:34:15.402Z,71.30
2017-03-24T04:35:13.664Z,71.40
2017-03-24T04:36:11.928Z,71.20
2017-03-24T04:37:10.197Z,71.20
2017-03-24T04:38:08.469Z,71.30
2017-03-24T04:39:06.701Z,71.30
2017-03-24T04:40:04.968Z,71.30
2017-03-24T04:41:03.165Z,71.30
2017-03-24T04:42:01.441Z,71.30
2017-03-24T04:42:59.657Z,71.20
2017-03-24T04:43:57.893Z,71.20
2017-03-24T04:44:56.858Z,71.70
2017-03-24T04:45:55.068Z,71.00
2017-03-24T04:46:53.286Z,71.00
2017-03-24T04:47:51.503Z,71.00
2017-03-24T04:48:49.717Z,71.10
2017-03-24T04:49:48.004Z,71.10
2017-03-24T04:50:46.216Z,71.20
2017-03-24T04:51:44.427Z,71.20
2017-03-24T04:52:43.393Z,71.30
2017-03-24T04:53:41.633Z,71.20
2017-03-24T04:54:39.853Z,71.20
2017-03-24T04:55:38.077Z,71.10
2017-03-24T04:56:36.306Z,71.10
2017-03-24T04:57:34.569Z,71.00
2017-03-24T04:58:32.818Z,70.90
2017-03-24T04:59:31.018Z,70.90
2017-03-24T05:00:29.218Z,70.90
2017-03-24T05:01:27.513Z,70.90
2017-03-24T05:02:25.766Z,70.70
2017-03-24T05:03:23.981Z,70.50
2017-03-24T05:04:22.210Z,70.50
2017-03-24T05:05:20.472Z,70.50
2017-03-24T05:06:18.727Z,70.60
2017-03-24T05:07:16.993Z,70.60
2017-03-24T05:08:15.315Z,70.60
2017-03-24T05:09:13.562Z,70.60
2017-03-24T05:10:11.801Z,70.50
2017-03-24T05:11:10.105Z,70.60
2017-03-24T05:12:08.333Z,70.60
2017-03-24T05:13:06.585Z,70.60
2017-03-24T05:14:04.834Z,70.70
2017-03-24T05:15:03.104Z,70.70
2017-03-24T05:16:01.354Z,70.70
2017-03-24T05:16:59.572Z,70.70
2017-03-24T05:17:57.804Z,70.60
2017-03-24T05:18:56.030Z,70.60
2017-03-24T05:19:54.421Z,70.60
2017-03-24T05:20:52.660Z,70.60
2017-03-24T05:21:50.877Z,70.60
2017-03-24T05:22:49.092Z,70.60
2017-03-24T05:23:47.293Z,70.60
2017-03-24T05:24:45.506Z,70.60
2017-03-24T05:25:43.706Z,71.20
2017-03-24T05:26:41.945Z,70.50
2017-03-24T05:27:40.161Z,70.40
2017-03-24T05:28:39.231Z,70.40
2017-03-24T05:29:37.441Z,70.40
2017-03-24T05:30:36.454Z,70.40
2017-03-24T05:31:34.714Z,70.40
2017-03-24T05:32:33.009Z,70.30
2017-03-24T05:33:31.334Z,70.40
2017-03-24T05:34:29.583Z,70.40
2017-03-24T05:35:28.577Z,70.40
2017-03-24T05:36:26.838Z,70.50
2017-03-24T05:37:25.169Z,70.50
2017-03-24T05:38:23.466Z,70.60
2017-03-24T05:39:22.503Z,70.90
2017-03-24T05:40:20.742Z,70.70
2017-03-24T05:41:18.990Z,71.20
2017-03-24T05:42:17.278Z,70.70
2017-03-24T05:43:15.511Z,70.60
2017-03-24T05:44:13.809Z,70.60
2017-03-24T05:45:12.082Z,70.50
2017-03-24T05:46:10.334Z,70.50
2017-03-24T05:47:08.558Z,70.60
2017-03-24T05:48:06.816Z,70.60
2017-03-24T05:49:05.085Z,70.70
2017-03-24T05:50:03.345Z,70.50
2017-03-24T05:51:01.614Z,70.50
2017-03-24T05:51:59.874Z,70.60
2017-03-24T05:52:58.106Z,70.50
2017-03-24T05:53:56.345Z,70.40
2017-03-24T05:54:55.330Z,70.00
2017-03-24T05:55:53.581Z,70.10
2017-03-24T05:56:51.809Z,70.10
2017-03-24T05:57:50.001Z,70.10
2017-03-24T05:58:48.242Z,70.10
2017-03-24T05:59:46.497Z,70.10
2017-03-24T06:00:44.781Z,70.00
2017-03-24T06:01:43.028Z,70.00
2017-03-24T06:02:41.250Z,69.80
2017-03-24T06:03:40.216Z,70.10
2017-03-24T06:04:38.475Z,69.80
2017-03-24T06:05:36.732Z,69.80
2017-03-24T06:06:34.989Z,69.80
2017-03-24T06:07:33.276Z,69.60
2017-03-24T06:08:32.258Z,70.00
2017-03-24T06:09:30.557Z,69.10
2017-03-24T06:10:28.782Z,69.10
2017-03-24T06:11:27.033Z,69.10
2017-03-24T06:12:25.309Z,69.20
2017-03-24T06:13:23.542Z,69.20
2017-03-24T06:14:21.786Z,69.30
2017-03-24T06:15:20.076Z,69.20
2017-03-24T06:16:18.394Z,69.20
2017-03-24T06:17:16.661Z,69.20
2017-03-24T06:18:14.886Z,69.20
2017-03-24T06:19:13.182Z,68.90
2017-03-24T06:20:11.446Z,67.90
2017-03-24T06:21:09.735Z,67.80
2017-03-24T06:22:08.041Z,67.70
2017-03-24T06:23:06.289Z,67.70
2017-03-24T06:24:04.566Z,67.70
2017-03-24T06:25:02.837Z,67.50
2017-03-24T06:26:01.097Z,67.70
2017-03-24T06:26:59.323Z,67.60
2017-03-24T06:27:57.543Z,67.30
2017-03-24T06:28:55.815Z,67.20
2017-03-24T06:29:54.026Z,67.10
2017-03-24T06:30:52.221Z,66.90
2017-03-24T06:31:50.464Z,66.90
2017-03-24T06:32:48.655Z,66.90
2017-03-24T06:33:46.866Z,67.00
2017-03-24T06:34:45.099Z,66.80
2017-03-24T06:35:43.318Z,66.60
2017-03-24T06:36:41.513Z,66.80
2017-03-24T06:37:39.738Z,66.50
2017-03-24T06:38:37.955Z,66.40
2017-03-24T06:39:36.617Z,66.50
2017-03-24T06:40:34.833Z,66.50
2017-03-24T06:41:33.108Z,66.50
2017-03-24T06:42:31.306Z,66.40
2017-03-24T06:43:30.566Z,66.50
2017-03-24T06:44:28.804Z,66.60
2017-03-24T06:45:27.058Z,66.60
2017-03-24T06:46:25.290Z,66.50
2017-03-24T06:47:24.285Z,66.30
2017-03-24T06:48:22.529Z,66.00
2017-03-24T06:49:20.773Z,66.00
2017-03-24T06:50:19.012Z,66.00
2017-03-24T06:51:17.238Z,65.90
2017-03-24T06:52:15.453Z,66.20
2017-03-24T06:53:13.737Z,65.80
2017-03-24T06:54:11.974Z,65.70
2017-03-24T06:55:10.198Z,65.70
2017-03-24T06:56:08.432Z,65.60
2017-03-24T06:57:06.664Z,65.40
2017-03-24T06:58:04.934Z,65.50
2017-03-24T06:59:03.154Z,65.40
2017-03-24T07:00:02.105Z,65.30
2017-03-24T07:01:00.316Z,65.50
2017-03-24T07:01:58.526Z,65.50
2017-03-24T07:02:56.750Z,65.70
2017-03-24T07:03:55.010Z,65.80
2017-03-24T07:04:53.229Z,65.80
2017-03-24T07:05:51.481Z,65.40
2017-03-24T07:06:49.712Z,65.20
2017-03-24T07:07:48.641Z,65.10
2017-03-24T07:08:46.857Z,65.20
2017-03-24T07:09:45.101Z,65.40
2017-03-24T07:10:43.307Z,65.50
2017-03-24T07:11:41.537Z,65.20
2017-03-24T07:12:39.751Z,65.20
2017-03-24T07:13:37.981Z,65.90
2017-03-24T07:14:36.194Z,65.20
2017-03-24T07:15:34.409Z,65.30
2017-03-24T07:16:32.665Z,65.20
2017-03-24T07:17:30.869Z,64.90
2017-03-24T07:18:29.092Z,65.00
2017-03-24T07:19:27.317Z,65.20
2017-03-24T07:20:25.613Z,65.10
2017-03-24T07:21:23.830Z,65.30
2017-03-24T07:22:22.093Z,65.30
2017-03-24T07:23:20.342Z,65.10
2017-03-24T07:24:18.577Z,65.00
2017-03-24T07:25:17.605Z,65.00
2017-03-24T07:26:15.798Z,65.10
2017-03-24T07:27:14.062Z,65.10
2017-03-24T07:28:12.286Z,65.10
2017-03-24T07:29:10.550Z,65.10
2017-03-24T07:30:08.787Z,65.30
2017-03-24T07:31:07.045Z,65.30
2017-03-24T07:32:05.281Z,65.20
2017-03-24T07:33:03.519Z,64.90
2017-03-24T07:34:01.757Z,64.20
2017-03-24T07:35:00.757Z,64.40
2017-03-24T07:35:58.968Z,64.70
2017-03-24T07:36:57.185Z,64.90
2017-03-24T07:37:55.456Z,64.70
2017-03-24T07:38:53.707Z,64.70
2017-03-24T07:39:51.920Z,65.20
2017-03-24T07:40:50.838Z,64.60
2017-03-24T07:41:49.050Z,64.60
2017-03-24T07:42:47.286Z,64.60
2017-03-24T07:43:45.498Z,64.50
2017-03-24T07:44:43.741Z,64.40
2017-03-24T07:45:41.937Z,64.40
2017-03-24T07:46:40.173Z,64.30
2017-03-24T07:47:38.441Z,64.80
2017-03-24T07:48:36.694Z,63.80
2017-03-24T07:49:34.921Z,63.80
2017-03-24T07:50:33.138Z,63.80
2017-03-24T07:51:31.334Z,63.60
2017-03-24T07:52:29.581Z,63.60
2017-03-24T07:53:27.815Z,63.50
2017-03-24T07:54:26.062Z,63.50
2017-03-24T07:55:25.053Z,63.10
2017-03-24T07:56:23.391Z,62.80
2017-03-24T07:57:21.623Z,62.90
2017-03-24T07:58:19.848Z,63.00
2017-03-24T07:59:18.032Z,63.10
2017-03-24T08:00:16.245Z,63.10
2017-03-24T08:01:14.529Z,62.60
2017-03-24T08:02:12.789Z,62.50
2017-03-24T08:03:11.001Z,62.40
2017-03-24T08:04:09.262Z,62.30
2017-03-24T08:05:07.477Z,62.40
2017-03-24T08:06:05.712Z,62.10
2017-03-24T08:07:04.061Z,61.90
2017-03-24T08:08:02.332Z,62.20
2017-03-24T08:09:00.594Z,62.60
2017-03-24T08:09:58.901Z,62.90
2017-03-24T08:10:57.172Z,62.70
2017-03-24T08:11:55.452Z,62.70
2017-03-24T08:12:53.769Z,62.60
2017-03-24T08:13:52.011Z,62.70
2017-03-24T08:14:50.210Z,62.80
2017-03-24T08:15:48.549Z,62.90
2017-03-24T08:16:47.513Z,63.00
2017-03-24T08:17:45.819Z,63.00
2017-03-24T08:18:44.024Z,62.80
2017-03-24T08:19:42.248Z,62.90
2017-03-24T08:20:40.493Z,62.90
2017-03-24T08:21:38.717Z,62.80
2017-03-24T08:22:36.984Z,62.50
2017-03-24T08:23:35.189Z,62.60
2017-03-24T08:24:33.443Z,62.40
2017-03-24T08:25:31.753Z,62.50
2017-03-24T08:26:29.981Z,63.60
2017-03-24T08:27:28.988Z,63.00
2017-03-24T08:28:27.192Z,62.70
2017-03-24T08:29:25.444Z,62.60
2017-03-24T08:30:23.709Z,62.50
2017-03-24T08:31:21.974Z,62.50
2017-03-24T08:32:20.208Z,62.10
2017-03-24T08:33:18.457Z,62.20
2017-03-24T08:34:16.676Z,62.90
2017-03-24T08:35:14.944Z,62.40
2017-03-24T08:36:13.209Z,62.40
2017-03-24T08:37:11.500Z,62.30
2017-03-24T08:38:09.757Z,62.20
2017-03-24T08:39:08.006Z,62.20
2017-03-24T08:40:06.240Z,62.30
2017-03-24T08:41:04.471Z,62.20
2017-03-24T08:42:02.700Z,62.00
2017-03-24T08:43:00.917Z,62.00
2017-03-24T08:43:59.128Z,62.10
2017-03-24T08:44:57.329Z,62.00
2017-03-24T08:45:55.529Z,61.80
2017-03-24T08:46:53.750Z,61.10
2017-03-24T08:47:52.004Z,60.80
2017-03-24T08:48:50.213Z,60.80
2017-03-24T08:49:49.172Z,60.70
2017-03-24T08:50:47.376Z,60.80
2017-03-24T08:51:45.596Z,60.90
2017-03-24T08:52:44.548Z,61.60
2017-03-24T08:53:42.792Z,61.20
2017-03-24T08:54:41.026Z,61.10
2017-03-24T08:55:39.213Z,60.90
2017-03-24T08:56:37.430Z,60.80
2017-03-24T08:57:35.697Z,60.80
2017-03-24T08:58:33.946Z,60.80
2017-03-24T08:59:32.892Z,60.90
2017-03-24T09:00:31.189Z,60.70
2017-03-24T09:01:29.446Z,60.70
2017-03-24T09:02:27.688Z,60.80
2017-03-24T09:03:25.957Z,60.70
2017-03-24T09:04:24.191Z,60.70
2017-03-24T09:05:22.451Z,60.90
2017-03-24T09:06:21.429Z,61.00
2017-03-24T09:07:19.680Z,60.90
2017-03-24T09:08:17.937Z,61.00
2017-03-24T09:09:16.173Z,60.70
2017-03-24T09:10:14.468Z,60.70
2017-03-24T09:11:12.697Z,60.90
2017-03-24T09:12:10.968Z,60.80
2017-03-24T09:13:09.226Z,60.30
2017-03-24T09:14:07.481Z,59.70
2017-03-24T09:15:06.497Z,59.90
2017-03-24T09:16:04.700Z,59.90
2017-03-24T09:17:02.921Z,60.00
2017-03-24T09:18:01.197Z,60.10
2017-03-24T09:18:59.421Z,60.30
2017-03-24T09:19:57.616Z,60.00
2017-03-24T09:20:55.824Z,59.70
2017-03-24T09:21:54.085Z,59.30
2017-03-24T09:22:52.308Z,59.20
2017-03-24T09:23:50.514Z,59.30
2017-03-24T09:24:48.717Z,59.30
2017-03-24T09:25:47.659Z,59.20
2017-03-24T09:26:45.849Z,59.10
2017-03-24T09:27:44.082Z,59.00
2017-03-24T09:28:42.282Z,58.70
2017-03-24T09:29:41.268Z,58.80
2017-03-24T09:30:40.235Z,58.80
2017-03-24T09:31:38.469Z,59.00
2017-03-24T09:32:36.752Z,58.90
2017-03-24T09:33:34.985Z,58.80
2017-03-24T09:34:33.245Z,58.00
2017-03-24T09:35:31.488Z,57.60
2017-03-24T09:36:30.433Z,57.60
2017-03-24T09:37:29.373Z,57.60
2017-03-24T09:38:27.581Z,57.90
2017-03-24T09:39:25.801Z,57.60
2017-03-24T09:40:24.020Z,57.90
2017-03-24T09:41:22.272Z,57.90
2017-03-24T09:42:20.513Z,57.80
2017-03-24T09:43:18.736Z,57.80
2017-03-24T09:44:17.718Z,58.20
2017-03-24T09:45:16.695Z,57.50
2017-03-24T09:46:15.689Z,57.40
2017-03-24T09:47:13.920Z,56.90
2017-03-24T09:48:12.122Z,56.60
2017-03-24T09:49:10.493Z,56.60
2017-03-24T09:50:08.722Z,57.20
2017-03-24T09:51:07.680Z,56.70
2017-03-24T09:52:05.924Z,56.80
2017-03-24T09:53:04.189Z,57.00
2017-03-24T09:54:02.459Z,57.00
2017-03-24T09:55:00.680Z,55.30
2017-03-24T09:55:58.984Z,55.30
2017-03-24T09:56:57.597Z,55.30
2017-03-24T09:57:55.768Z,55.10
2017-03-24T09:58:53.968Z,55.40
2017-03-24T09:59:52.163Z,55.30
2017-03-24T10:00:50.429Z,54.90
2017-03-24T10:01:48.680Z,54.90
2017-03-24T10:02:46.944Z,55.00
2017-03-24T10:03:45.136Z,54.40
2017-03-24T10:04:43.410Z,53.90
2017-03-24T10:05:41.636Z,54.20
2017-03-24T10:06:39.865Z,54.40
2017-03-24T10:07:38.092Z,54.50
2017-03-24T10:08:36.332Z,54.40
2017-03-24T10:09:35.276Z,54.00
2017-03-24T10:10:33.514Z,53.70
2017-03-24T10:11:31.704Z,53.90
2017-03-24T10:12:29.944Z,54.00
2017-03-24T10:13:28.173Z,53.40
2017-03-24T10:14:27.116Z,53.50
2017-03-24T10:15:25.359Z,53.60
2017-03-24T10:16:23.593Z,53.20
2017-03-24T10:17:21.812Z,53.50
2017-03-24T10:18:20.041Z,53.50
2017-03-24T10:19:18.240Z,53.70
2017-03-24T10:20:16.509Z,53.90
2017-03-24T10:21:14.760Z,54.20
2017-03-24T10:22:13.036Z,54.10
2017-03-24T10:23:11.980Z,54.10
2017-03-24T10:24:10.216Z,53.90
2017-03-24T10:25:08.389Z,52.80
2017-03-24T10:26:06.581Z,51.90
2017-03-24T10:27:04.812Z,51.70
2017-03-24T10:28:03.076Z,52.40
2017-03-24T10:29:01.281Z,51.40
2017-03-24T10:29:59.477Z,51.20
2017-03-24T10:30:57.719Z,51.20
2017-03-24T10:31:55.944Z,50.80
2017-03-24T10:32:54.213Z,51.10
2017-03-24T10:33:52.449Z,51.70
2017-03-24T10:34:50.678Z,52.00
2017-03-24T10:35:48.932Z,52.00
2017-03-24T10:36:47.140Z,51.90
2017-03-24T10:37:45.328Z,52.00
2017-03-24T10:38:43.529Z,52.30
2017-03-24T10:39:41.797Z,52.20
2017-03-24T10:40:40.020Z,52.00
2017-03-24T10:41:38.279Z,51.90
2017-03-24T10:42:36.483Z,52.40
2017-03-24T10:43:34.712Z,52.60
2017-03-24T10:44:32.940Z,52.90
2017-03-24T10:45:31.189Z,52.80
2017-03-24T10:46:29.437Z,52.90
2017-03-24T10:47:27.621Z,52.90
2017-03-24T10:48:25.836Z,52.90
2017-03-24T10:49:24.029Z,52.60
2017-03-24T10:50:22.953Z,52.20
2017-03-24T10:51:21.216Z,52.20
2017-03-24T10:52:19.433Z,52.30
2017-03-24T10:53:17.669Z,52.40
2017-03-24T10:54:15.908Z,52.10
2017-03-24T10:55:14.141Z,52.20
2017-03-24T10:56:12.377Z,52.50
2017-03-24T10:57:10.654Z,52.50
2017-03-24T10:58:08.862Z,51.80
2017-03-24T10:59:07.112Z,51.40
2017-03-24T11:00:05.343Z,51.40
2017-03-24T11:01:03.615Z,51.20
2017-03-24T11:02:02.584Z,51.00
2017-03-24T11:03:00.833Z,50.70
2017-03-24T11:03:59.065Z,51.20
2017-03-24T11:04:57.293Z,51.40
2017-03-24T11:05:56.232Z,51.30
2017-03-24T11:06:54.441Z,50.10
2017-03-24T11:07:52.633Z,49.50
2017-03-24T11:08:50.856Z,49.80
2017-03-24T11:09:49.060Z,48.90
2017-03-24T11:10:47.260Z,49.60
2017-03-24T11:11:45.482Z,49.90
2017-03-24T11:12:44.424Z,49.50
2017-03-24T11:13:42.637Z,50.20
2017-03-24T11:14:41.605Z,50.10
2017-03-24T11:15:39.854Z,50.10
2017-03-24T11:16:38.054Z,49.90
2017-03-24T11:17:36.264Z,50.00
2017-03-24T11:18:34.493Z,49.00
2017-03-24T11:19:32.709Z,48.70
2017-03-24T11:20:30.945Z,48.50
2017-03-24T11:21:29.162Z,48.80
2017-03-24T11:22:27.396Z,48.40
2017-03-24T11:23:25.617Z,47.50
2017-03-24T11:24:23.861Z,47.70
2017-03-24T11:25:22.088Z,48.70
2017-03-24T11:26:20.341Z,48.70
2017-03-24T11:27:18.576Z,48.60
2017-03-24T11:28:16.828Z,47.80
2017-03-24T11:29:15.029Z,47.90
2017-03-24T11:30:13.241Z,48.10
2017-03-24T11:31:12.205Z,47.70
2017-03-24T11:32:10.513Z,47.80
2017-03-24T11:33:08.820Z,48.10
2017-03-24T11:34:07.093Z,47.40
2017-03-24T11:35:05.385Z,47.20
2017-03-24T11:36:04.388Z,47.60
2017-03-24T11:37:02.652Z,47.40
2017-03-24T11:38:00.884Z,47.50
2017-03-24T11:38:59.132Z,47.70
2017-03-24T11:39:58.080Z,46.80
2017-03-24T11:40:56.316Z,46.60
2017-03-24T11:41:55.299Z,46.50
2017-03-24T11:42:53.564Z,46.40
2017-03-24T11:43:51.812Z,46.30
2017-03-24T11:44:50.025Z,45.20
2017-03-24T11:45:48.224Z,45.10
2017-03-24T11:46:46.481Z,44.60
2017-03-24T11:47:44.696Z,44.00
2017-03-24T11:48:42.924Z,44.40
2017-03-24T11:49:41.176Z,44.50
2017-03-24T11:50:39.397Z,44.30
2017-03-24T11:51:37.657Z,44.70
2017-03-24T11:52:35.880Z,44.40
2017-03-24T11:53:34.096Z,44.60
2017-03-24T11:54:32.313Z,44.20
2017-03-24T11:55:30.557Z,44.60
2017-03-24T11:56:28.783Z,44.60
2017-03-24T11:57:27.752Z,44.10
2017-03-24T11:58:25.984Z,44.10
2017-03-24T11:59:24.277Z,43.90
2017-03-24T12:00:22.524Z,44.10
2017-03-24T12:01:20.819Z,43.50
2017-03-24T12:02:19.128Z,43.60
2017-03-24T12:03:17.387Z,43.10
2017-03-24T12:04:15.597Z,42.90
2017-03-24T12:05:13.849Z,43.10
2017-03-24T12:06:12.085Z,43.10
2017-03-24T12:07:10.324Z,43.10
2017-03-24T12:08:08.581Z,41.90
2017-03-24T12:09:06.833Z,40.80
2017-03-24T12:10:05.097Z,40.50
2017-03-24T12:11:03.346Z,40.60
2017-03-24T12:12:01.565Z,40.10
2017-03-24T12:12:59.788Z,40.10
2017-03-24T12:13:58.001Z,39.50
2017-03-24T12:14:56.220Z,39.70
2017-03-24T12:15:54.442Z,39.80
2017-03-24T12:16:52.688Z,39.60
2017-03-24T12:17:50.915Z,39.90
2017-03-24T12:18:49.145Z,39.60
2017-03-24T12:19:47.355Z,38.30
2017-03-24T12:20:45.572Z,37.70
2017-03-24T12:21:43.792Z,38.50
2017-03-24T12:22:42.017Z,37.90
2017-03-24T12:23:40.236Z,38.00
2017-03-24T12:24:44.110Z,37.50
2017-03-24T12:25:42.345Z,37.90
2017-03-24T12:26:40.597Z,37.40
2017-03-24T12:27:38.801Z,37.50
2017-03-24T12:28:37.041Z,37.40
2017-03-24T12:29:35.287Z,37.40
2017-03-24T12:30:33.489Z,36.80
2017-03-24T12:31:31.686Z,35.90
2017-03-24T12:32:30.633Z,36.30